Summerford, Canada
Current Conditions -  °F | °C
As of 2:00 PM on Sunday 23 Nov 2014 (Local Time) from CYQX Reporting Station
Broken Clouds Broken Clouds  
Wind Chill: 25°   Ceiling: 7500
Heat Index: 36°   Visibility: 20mi
Dew Point: 27°   Wind: 18mph
Humidity: 70%   Direction: 240°WSW
Pressure: 29.62"   Gusts: 25mph
Location:  49.48°N, 54.83°W
Report Text: CYQX 231700Z 24016G22KT 20SM FEW028 SCT044 BKN075 02/M03 A2962 RMK SC1SC2AC4 CF TR SLP037
Loading
Personal Weather Stations






























Interactive Weather Map New forecast layout! Learn more

10-Day Weather Forecast

Advertisements
Track Severe Weather on mobile